createdAt,value
2023-01-29T00:00:04.682Z,960.34
2023-01-29T00:00:15.327Z,960.34
2023-01-29T00:00:24.687Z,960.34
2023-01-29T00:00:34.680Z,960.33
2023-01-29T00:00:44.683Z,960.33
2023-01-29T00:00:54.684Z,960.32
2023-01-29T00:01:05.570Z,960.32
2023-01-29T00:01:14.695Z,960.32
2023-01-29T00:01:24.707Z,960.32
2023-01-29T00:01:34.693Z,960.31
2023-01-29T00:01:44.719Z,960.31
2023-01-29T00:01:54.718Z,960.30
2023-01-29T00:02:04.796Z,960.30
2023-01-29T00:02:14.791Z,960.30
2023-01-29T00:02:24.721Z,960.30
2023-01-29T00:02:34.693Z,960.30
2023-01-29T00:02:44.812Z,960.29
2023-01-29T00:02:54.696Z,960.29
2023-01-29T00:03:04.750Z,960.29
2023-01-29T00:03:14.790Z,960.29
2023-01-29T00:03:24.747Z,960.29
2023-01-29T00:03:34.695Z,960.29
2023-01-29T00:03:44.702Z,960.28
2023-01-29T00:03:54.697Z,960.28
2023-01-29T00:04:04.699Z,960.28
2023-01-29T00:04:14.700Z,960.28
2023-01-29T00:04:24.708Z,960.28
2023-01-29T00:04:34.698Z,960.28
2023-01-29T00:04:44.727Z,960.28
2023-01-29T00:04:58.914Z,960.27
2023-01-29T00:05:20.736Z,960.26
2023-01-29T00:05:26.464Z,960.26
2023-01-29T00:05:28.355Z,960.25
2023-01-29T00:05:34.705Z,960.25
2023-01-29T00:05:44.706Z,960.24
2023-01-29T00:05:54.710Z,960.24
2023-01-29T00:06:05.579Z,960.23
2023-01-29T00:06:14.709Z,960.23
2023-01-29T00:06:24.713Z,960.22
2023-01-29T00:06:34.715Z,960.22
2023-01-29T00:06:44.712Z,960.21
2023-01-29T00:06:54.732Z,960.21
2023-01-29T00:07:04.720Z,960.20
2023-01-29T00:07:14.714Z,960.19
2023-01-29T00:07:24.724Z,960.19
2023-01-29T00:07:34.714Z,960.18
2023-01-29T00:07:44.714Z,960.18
2023-01-29T00:07:54.715Z,960.17
2023-01-29T00:08:04.721Z,960.16
2023-01-29T00:08:14.718Z,960.16
2023-01-29T00:08:24.719Z,960.15
2023-01-29T00:08:34.720Z,960.15
2023-01-29T00:08:44.726Z,960.14
2023-01-29T00:08:54.719Z,960.14
2023-01-29T00:09:04.720Z,960.14
2023-01-29T00:09:14.728Z,960.14
2023-01-29T00:09:24.720Z,960.13
2023-01-29T00:09:34.725Z,960.13
2023-01-29T00:09:44.725Z,960.13
2023-01-29T00:09:54.732Z,960.13
2023-01-29T00:10:04.723Z,960.13
2023-01-29T00:10:15.348Z,960.13
2023-01-29T00:10:24.731Z,960.13
2023-01-29T00:10:34.729Z,960.12
2023-01-29T00:10:44.727Z,960.12
2023-01-29T00:10:54.755Z,960.12
2023-01-29T00:11:04.804Z,960.12
2023-01-29T00:11:14.735Z,960.12
2023-01-29T00:11:24.734Z,960.12
2023-01-29T00:11:34.734Z,960.12
2023-01-29T00:11:44.738Z,960.12
2023-01-29T00:11:54.734Z,960.12
2023-01-29T00:12:04.752Z,960.12
2023-01-29T00:12:14.744Z,960.13
2023-01-29T00:12:24.744Z,960.13
2023-01-29T00:12:34.738Z,960.13
2023-01-29T00:12:44.737Z,960.13
2023-01-29T00:12:54.741Z,960.13
2023-01-29T00:13:04.744Z,960.13
2023-01-29T00:13:14.749Z,960.14
2023-01-29T00:13:24.745Z,960.14
2023-01-29T00:13:34.766Z,960.14
2023-01-29T00:13:44.742Z,960.14
2023-01-29T00:13:54.732Z,960.14
2023-01-29T00:14:04.747Z,960.15
2023-01-29T00:14:14.744Z,960.15
2023-01-29T00:14:24.747Z,960.15
2023-01-29T00:14:34.748Z,960.16
2023-01-29T00:14:44.753Z,960.16
2023-01-29T00:14:54.754Z,960.16
2023-01-29T00:15:04.752Z,960.16
2023-01-29T00:15:14.761Z,960.16
2023-01-29T00:15:24.752Z,960.16
2023-01-29T00:15:34.761Z,960.16
2023-01-29T00:15:44.756Z,960.16
2023-01-29T00:15:54.756Z,960.16
2023-01-29T00:16:05.579Z,960.16
2023-01-29T00:16:14.758Z,960.16
2023-01-29T00:16:24.764Z,960.16
2023-01-29T00:16:34.759Z,960.16
2023-01-29T00:16:44.787Z,960.16
2023-01-29T00:16:54.858Z,960.16
2023-01-29T00:17:04.802Z,960.16
2023-01-29T00:17:14.835Z,960.15
2023-01-29T00:17:24.760Z,960.15
2023-01-29T00:17:34.767Z,960.16
2023-01-29T00:17:44.773Z,960.15
2023-01-29T00:17:54.750Z,960.15
2023-01-29T00:18:04.763Z,960.15
2023-01-29T00:18:14.766Z,960.15
2023-01-29T00:18:24.765Z,960.16
2023-01-29T00:18:34.761Z,960.16
2023-01-29T00:18:44.765Z,960.16
2023-01-29T00:18:54.773Z,960.16
2023-01-29T00:19:04.777Z,960.16
2023-01-29T00:19:14.771Z,960.16
2023-01-29T00:19:24.772Z,960.16
2023-01-29T00:19:34.772Z,960.16
2023-01-29T00:19:44.775Z,960.16
2023-01-29T00:19:54.777Z,960.16
2023-01-29T00:20:04.759Z,960.16
2023-01-29T00:20:15.208Z,960.16
2023-01-29T00:20:24.787Z,960.16
2023-01-29T00:20:34.758Z,960.16
2023-01-29T00:20:44.774Z,960.16
2023-01-29T00:20:54.761Z,960.15
2023-01-29T00:21:05.563Z,960.15
2023-01-29T00:21:14.774Z,960.15
2023-01-29T00:21:24.775Z,960.14
2023-01-29T00:21:34.775Z,960.14
2023-01-29T00:21:44.786Z,960.14
2023-01-29T00:21:54.778Z,960.14
2023-01-29T00:22:04.783Z,960.14
2023-01-29T00:22:14.781Z,960.14
2023-01-29T00:22:24.790Z,960.14
2023-01-29T00:22:34.783Z,960.14
2023-01-29T00:22:44.784Z,960.13
2023-01-29T00:22:54.782Z,960.13
2023-01-29T00:23:04.782Z,960.13
2023-01-29T00:23:14.783Z,960.12
2023-01-29T00:23:24.783Z,960.12
2023-01-29T00:23:34.784Z,960.12
2023-01-29T00:23:44.784Z,960.12
2023-01-29T00:23:54.796Z,960.12
2023-01-29T00:24:04.816Z,960.11
2023-01-29T00:24:14.874Z,960.11
2023-01-29T00:24:24.836Z,960.11
2023-01-29T00:24:34.788Z,960.10
2023-01-29T00:24:44.790Z,960.10
2023-01-29T00:24:54.791Z,960.10
2023-01-29T00:25:04.804Z,960.10
2023-01-29T00:25:14.811Z,960.10
2023-01-29T00:25:24.795Z,960.10
2023-01-29T00:25:34.794Z,960.10
2023-01-29T00:25:44.799Z,960.10
2023-01-29T00:25:54.796Z,960.10
2023-01-29T00:26:04.820Z,960.10
2023-01-29T00:26:14.798Z,960.10
2023-01-29T00:26:24.800Z,960.10
2023-01-29T00:26:34.811Z,960.10
2023-01-29T00:26:44.814Z,960.10
2023-01-29T00:26:54.799Z,960.10
2023-01-29T00:27:04.799Z,960.09
2023-01-29T00:27:14.821Z,960.09
2023-01-29T00:27:24.802Z,960.09
2023-01-29T00:27:34.808Z,960.09
2023-01-29T00:27:44.850Z,960.08
2023-01-29T00:27:54.809Z,960.08
2023-01-29T00:28:04.809Z,960.07
2023-01-29T00:28:14.808Z,960.07
2023-01-29T00:28:24.810Z,960.06
2023-01-29T00:28:34.814Z,960.06
2023-01-29T00:28:44.811Z,960.05
2023-01-29T00:28:54.811Z,960.05
2023-01-29T00:29:04.816Z,960.05
2023-01-29T00:29:14.809Z,960.05
2023-01-29T00:29:24.816Z,960.04
2023-01-29T00:29:34.820Z,960.04
2023-01-29T00:29:44.818Z,960.03
2023-01-29T00:29:54.818Z,960.03
2023-01-29T00:30:04.819Z,960.03
2023-01-29T00:30:15.401Z,960.03
2023-01-29T00:30:24.822Z,960.02
2023-01-29T00:30:34.826Z,960.02
2023-01-29T00:30:44.832Z,960.02
2023-01-29T00:30:54.984Z,960.01
2023-01-29T00:31:04.939Z,960.01
2023-01-29T00:31:14.956Z,960.01
2023-01-29T00:31:24.892Z,960.00
2023-01-29T00:31:34.925Z,960.00
2023-01-29T00:31:44.898Z,960.00
2023-01-29T00:31:54.904Z,959.99
2023-01-29T00:32:04.938Z,959.99
2023-01-29T00:32:15.001Z,959.99
2023-01-29T00:32:24.845Z,959.98
2023-01-29T00:32:34.835Z,959.97
2023-01-29T00:32:44.845Z,959.96
2023-01-29T00:32:54.839Z,959.96
2023-01-29T00:33:04.837Z,959.95
2023-01-29T00:33:14.847Z,959.95
2023-01-29T00:33:24.839Z,959.95
2023-01-29T00:33:34.837Z,959.94
2023-01-29T00:33:44.838Z,959.94
2023-01-29T00:33:54.837Z,959.94
2023-01-29T00:34:04.841Z,959.94
2023-01-29T00:34:14.863Z,959.93
2023-01-29T00:34:24.851Z,959.93
2023-01-29T00:34:34.845Z,959.93
2023-01-29T00:34:44.847Z,959.92
2023-01-29T00:34:54.844Z,959.92
2023-01-29T00:35:04.847Z,959.92
2023-01-29T00:35:14.846Z,959.92
2023-01-29T00:35:24.847Z,959.91
2023-01-29T00:35:34.847Z,959.91
2023-01-29T00:35:44.847Z,959.90
2023-01-29T00:35:54.855Z,959.90
2023-01-29T00:36:04.853Z,959.89
2023-01-29T00:36:14.856Z,959.89
2023-01-29T00:36:24.899Z,959.88
2023-01-29T00:36:34.853Z,959.88
2023-01-29T00:36:44.856Z,959.88
2023-01-29T00:36:54.845Z,959.88
2023-01-29T00:37:04.949Z,959.87
2023-01-29T00:37:14.862Z,959.88
2023-01-29T00:37:24.862Z,959.88
2023-01-29T00:37:34.857Z,959.88
2023-01-29T00:37:44.864Z,959.87
2023-01-29T00:37:54.861Z,959.88
2023-01-29T00:38:04.860Z,959.87
2023-01-29T00:38:14.862Z,959.88
2023-01-29T00:38:24.862Z,959.88
2023-01-29T00:38:34.865Z,959.88
2023-01-29T00:38:44.866Z,959.89
2023-01-29T00:38:54.978Z,959.89
2023-01-29T00:39:04.891Z,959.89
2023-01-29T00:39:14.865Z,959.90
2023-01-29T00:39:29.379Z,959.90
2023-01-29T00:39:47.113Z,959.90
2023-01-29T00:39:48.244Z,959.91
2023-01-29T00:39:54.869Z,959.91
2023-01-29T00:40:04.872Z,959.91
2023-01-29T00:40:15.438Z,959.91
2023-01-29T00:40:24.882Z,959.91
2023-01-29T00:40:34.869Z,959.92
2023-01-29T00:40:44.870Z,959.92
2023-01-29T00:40:54.877Z,959.92
2023-01-29T00:41:04.936Z,959.93
2023-01-29T00:41:14.878Z,959.93
2023-01-29T00:41:24.872Z,959.93
2023-01-29T00:41:34.879Z,959.93
2023-01-29T00:41:44.872Z,959.93
2023-01-29T00:41:54.878Z,959.93
2023-01-29T00:42:04.868Z,959.93
2023-01-29T00:42:14.876Z,959.93
2023-01-29T00:42:24.884Z,959.93
2023-01-29T00:42:34.885Z,959.93
2023-01-29T00:42:44.881Z,959.93
2023-01-29T00:42:54.882Z,959.93
2023-01-29T00:43:04.886Z,959.93
2023-01-29T00:43:14.883Z,959.93
2023-01-29T00:43:24.887Z,959.93
2023-01-29T00:43:34.882Z,959.93
2023-01-29T00:43:44.884Z,959.94
2023-01-29T00:43:54.887Z,959.94
2023-01-29T00:44:04.884Z,959.94
2023-01-29T00:44:14.905Z,959.94
2023-01-29T00:44:24.892Z,959.95
2023-01-29T00:44:34.886Z,959.95
2023-01-29T00:44:44.910Z,959.95
2023-01-29T00:44:54.875Z,959.95
2023-01-29T00:45:04.891Z,959.95
2023-01-29T00:45:14.889Z,959.96
2023-01-29T00:45:24.893Z,959.96
2023-01-29T00:45:34.892Z,959.96
2023-01-29T00:45:44.896Z,959.96
2023-01-29T00:45:54.891Z,959.97
2023-01-29T00:46:05.589Z,959.96
2023-01-29T00:46:14.979Z,959.96
2023-01-29T00:46:24.960Z,959.96
2023-01-29T00:46:34.912Z,959.96
2023-01-29T00:46:45.019Z,959.95
2023-01-29T00:46:54.977Z,959.95
2023-01-29T00:47:04.916Z,959.95
2023-01-29T00:47:14.901Z,959.95
2023-01-29T00:47:24.904Z,959.95
2023-01-29T00:47:34.902Z,959.94
2023-01-29T00:47:44.900Z,959.94
2023-01-29T00:47:54.917Z,959.94
2023-01-29T00:48:04.905Z,959.94
2023-01-29T00:48:14.893Z,959.93
2023-01-29T00:48:24.894Z,959.93
2023-01-29T00:48:34.909Z,959.93
2023-01-29T00:48:44.910Z,959.94
2023-01-29T00:48:54.912Z,959.94
2023-01-29T00:49:04.913Z,959.94
2023-01-29T00:49:14.895Z,959.93
2023-01-29T00:49:24.895Z,959.93
2023-01-29T00:49:34.912Z,959.94
2023-01-29T00:49:44.896Z,959.94
2023-01-29T00:49:54.916Z,959.94
2023-01-29T00:50:04.914Z,959.94
2023-01-29T00:50:15.191Z,959.94
2023-01-29T00:50:24.915Z,959.94
2023-01-29T00:50:34.910Z,959.94
2023-01-29T00:50:44.929Z,959.94
2023-01-29T00:50:54.901Z,959.94
2023-01-29T00:51:05.024Z,959.94
2023-01-29T00:51:14.920Z,959.94
2023-01-29T00:51:24.918Z,959.94
2023-01-29T00:51:34.905Z,959.94
2023-01-29T00:51:44.920Z,959.94
2023-01-29T00:51:54.922Z,959.94
2023-01-29T00:52:04.924Z,959.95
2023-01-29T00:52:14.924Z,959.95
2023-01-29T00:52:24.940Z,959.96
2023-01-29T00:52:34.936Z,959.96
2023-01-29T00:52:44.924Z,959.97
2023-01-29T00:52:54.911Z,959.97
2023-01-29T00:53:04.932Z,959.97
2023-01-29T00:53:14.926Z,959.97
2023-01-29T00:53:24.926Z,959.97
2023-01-29T00:53:34.924Z,959.96
2023-01-29T00:53:44.931Z,959.96
2023-01-29T00:53:54.925Z,959.96
2023-01-29T00:54:04.927Z,959.95
2023-01-29T00:54:14.913Z,959.95
2023-01-29T00:54:24.914Z,959.95
2023-01-29T00:54:34.936Z,959.95
2023-01-29T00:54:44.939Z,959.94
2023-01-29T00:54:54.933Z,959.94
2023-01-29T00:55:04.936Z,959.94
2023-01-29T00:55:14.938Z,959.94
2023-01-29T00:55:24.959Z,959.93
2023-01-29T00:55:34.937Z,959.93
2023-01-29T00:55:44.936Z,959.92
2023-01-29T00:55:54.940Z,959.91
2023-01-29T00:56:04.946Z,959.91
2023-01-29T00:56:14.941Z,959.90
2023-01-29T00:56:24.939Z,959.90
2023-01-29T00:56:34.945Z,959.90
2023-01-29T00:56:44.941Z,959.89
2023-01-29T00:56:54.944Z,959.89
2023-01-29T00:57:04.944Z,959.89
2023-01-29T00:57:14.946Z,959.89
2023-01-29T00:57:24.967Z,959.89
2023-01-29T00:57:34.946Z,959.89
2023-01-29T00:57:44.949Z,959.88
2023-01-29T00:57:54.951Z,959.89
2023-01-29T00:58:04.955Z,959.88
2023-01-29T00:58:14.951Z,959.88
2023-01-29T00:58:24.955Z,959.88
2023-01-29T00:58:34.952Z,959.88
2023-01-29T00:58:44.952Z,959.88
2023-01-29T00:58:54.954Z,959.88
2023-01-29T00:59:04.992Z,959.87
2023-01-29T00:59:14.957Z,959.87
2023-01-29T00:59:24.964Z,959.87
2023-01-29T00:59:34.959Z,959.87
2023-01-29T00:59:44.964Z,959.87
2023-01-29T00:59:54.963Z,959.87
2023-01-29T01:00:04.966Z,959.86
2023-01-29T01:00:15.284Z,959.86
2023-01-29T01:00:24.965Z,959.85
2023-01-29T01:00:34.983Z,959.85
2023-01-29T01:00:45.062Z,959.85
2023-01-29T01:00:55.035Z,959.84
2023-01-29T01:01:05.082Z,959.84
2023-01-29T01:01:15.025Z,959.83
2023-01-29T01:01:24.969Z,959.83
2023-01-29T01:01:34.972Z,959.82
2023-01-29T01:01:44.979Z,959.82
2023-01-29T01:01:55.042Z,959.81
2023-01-29T01:02:05.004Z,959.81
2023-01-29T01:02:15.034Z,959.81
2023-01-29T01:02:25.011Z,959.81
2023-01-29T01:02:34.977Z,959.81
2023-01-29T01:02:44.975Z,959.80
2023-01-29T01:02:54.976Z,959.80
2023-01-29T01:03:04.975Z,959.80
2023-01-29T01:03:14.975Z,959.79
2023-01-29T01:03:24.978Z,959.79
2023-01-29T01:03:34.981Z,959.78
2023-01-29T01:03:44.979Z,959.78
2023-01-29T01:03:54.981Z,959.78
2023-01-29T01:04:04.978Z,959.78
2023-01-29T01:04:14.983Z,959.78
2023-01-29T01:04:24.980Z,959.78
2023-01-29T01:04:35.131Z,959.77
2023-01-29T01:04:44.988Z,959.76
2023-01-29T01:04:54.985Z,959.76
2023-01-29T01:05:04.993Z,959.76
2023-01-29T01:05:14.975Z,959.76
2023-01-29T01:05:24.990Z,959.76
2023-01-29T01:05:34.997Z,959.77
2023-01-29T01:05:44.990Z,959.76
2023-01-29T01:05:54.998Z,959.76
2023-01-29T01:06:05.599Z,959.76
2023-01-29T01:06:14.996Z,959.76
2023-01-29T01:06:24.994Z,959.76
2023-01-29T01:06:34.992Z,959.75
2023-01-29T01:06:44.998Z,959.75
2023-01-29T01:06:55.001Z,959.75
2023-01-29T01:07:04.995Z,959.74
2023-01-29T01:07:14.996Z,959.74
2023-01-29T01:07:24.984Z,959.74
2023-01-29T01:07:35.006Z,959.74
2023-01-29T01:07:44.996Z,959.74
2023-01-29T01:07:55.001Z,959.73
2023-01-29T01:08:04.999Z,959.73
2023-01-29T01:08:14.998Z,959.73
2023-01-29T01:08:25.002Z,959.73
2023-01-29T01:08:35.004Z,959.73
2023-01-29T01:08:44.991Z,959.73
2023-01-29T01:08:55.003Z,959.73
2023-01-29T01:09:05.011Z,959.74
2023-01-29T01:09:15.005Z,959.75
2023-01-29T01:09:25.008Z,959.75
2023-01-29T01:09:35.013Z,959.75
2023-01-29T01:09:45.008Z,959.76
2023-01-29T01:09:55.007Z,959.77
2023-01-29T01:10:04.994Z,959.77
2023-01-29T01:10:15.290Z,959.77
2023-01-29T01:10:25.014Z,959.77
2023-01-29T01:10:35.018Z,959.78
2023-01-29T01:10:45.021Z,959.78
2023-01-29T01:10:55.020Z,959.77
2023-01-29T01:11:05.045Z,959.77
2023-01-29T01:11:15.002Z,959.77
2023-01-29T01:11:25.015Z,959.78
2023-01-29T01:11:35.019Z,959.78
2023-01-29T01:11:45.022Z,959.78
2023-01-29T01:11:55.025Z,959.78
2023-01-29T01:12:05.023Z,959.79
2023-01-29T01:12:15.031Z,959.79
2023-01-29T01:12:25.040Z,959.79
2023-01-29T01:12:35.028Z,959.79
2023-01-29T01:12:45.037Z,959.79
2023-01-29T01:12:55.026Z,959.79
2023-01-29T01:13:05.017Z,959.78
2023-01-29T01:13:15.032Z,959.79
2023-01-29T01:13:25.033Z,959.79
2023-01-29T01:13:35.041Z,959.80
2023-01-29T01:13:45.044Z,959.81
2023-01-29T01:13:55.039Z,959.81
2023-01-29T01:14:05.039Z,959.81
2023-01-29T01:14:15.033Z,959.81
2023-01-29T01:14:25.040Z,959.81
2023-01-29T01:14:35.035Z,959.81
2023-01-29T01:14:45.032Z,959.82
2023-01-29T01:14:55.040Z,959.82
2023-01-29T01:15:05.064Z,959.82
2023-01-29T01:15:15.036Z,959.82
2023-01-29T01:15:25.033Z,959.82
2023-01-29T01:15:35.052Z,959.82
2023-01-29T01:15:45.043Z,959.82
2023-01-29T01:15:55.111Z,959.82
2023-01-29T01:16:05.042Z,959.82
2023-01-29T01:16:15.080Z,959.83
2023-01-29T01:16:25.099Z,959.83
2023-01-29T01:16:35.198Z,959.83
2023-01-29T01:16:45.041Z,959.83
2023-01-29T01:16:55.045Z,959.84
2023-01-29T01:17:05.031Z,959.83
2023-01-29T01:17:15.045Z,959.84
2023-01-29T01:17:25.063Z,959.83
2023-01-29T01:17:35.043Z,959.83
2023-01-29T01:17:45.043Z,959.83
2023-01-29T01:17:55.046Z,959.83
2023-01-29T01:18:05.053Z,959.83
2023-01-29T01:18:15.033Z,959.83
2023-01-29T01:18:25.034Z,959.83
2023-01-29T01:18:35.050Z,959.82
2023-01-29T01:18:45.050Z,959.82
2023-01-29T01:18:55.047Z,959.82
2023-01-29T01:19:05.054Z,959.82
2023-01-29T01:19:15.049Z,959.82
2023-01-29T01:19:25.052Z,959.82
2023-01-29T01:19:35.050Z,959.81
2023-01-29T01:19:45.055Z,959.81
2023-01-29T01:19:55.079Z,959.80
2023-01-29T01:20:05.054Z,959.80
2023-01-29T01:20:15.440Z,959.80
2023-01-29T01:20:25.061Z,959.80
2023-01-29T01:20:35.037Z,959.80
2023-01-29T01:20:45.058Z,959.79
2023-01-29T01:20:55.058Z,959.79
2023-01-29T01:21:05.057Z,959.79
2023-01-29T01:21:15.063Z,959.79
2023-01-29T01:21:25.063Z,959.80
2023-01-29T01:21:35.061Z,959.79
2023-01-29T01:21:45.059Z,959.79
2023-01-29T01:21:55.062Z,959.79
2023-01-29T01:22:05.062Z,959.79
2023-01-29T01:22:15.066Z,959.79
2023-01-29T01:22:25.103Z,959.79
2023-01-29T01:22:35.065Z,959.80
2023-01-29T01:22:45.068Z,959.80
2023-01-29T01:22:55.091Z,959.80
2023-01-29T01:23:05.070Z,959.81
2023-01-29T01:23:15.070Z,959.81
2023-01-29T01:23:25.071Z,959.81
2023-01-29T01:23:35.055Z,959.81
2023-01-29T01:23:45.081Z,959.81
2023-01-29T01:23:55.198Z,959.81
2023-01-29T01:24:05.129Z,959.81
2023-01-29T01:24:15.142Z,959.82
2023-01-29T01:24:25.173Z,959.82
2023-01-29T01:24:35.075Z,959.82
2023-01-29T01:24:45.064Z,959.83
2023-01-29T01:24:55.079Z,959.83
2023-01-29T01:25:05.083Z,959.83
2023-01-29T01:25:15.082Z,959.83
2023-01-29T01:25:25.081Z,959.84
2023-01-29T01:25:35.085Z,959.84
2023-01-29T01:25:45.079Z,959.84
2023-01-29T01:25:55.089Z,959.85
2023-01-29T01:26:05.084Z,959.85
2023-01-29T01:26:15.088Z,959.85
2023-01-29T01:26:25.081Z,959.86
2023-01-29T01:26:35.091Z,959.86
2023-01-29T01:26:45.083Z,959.86
2023-01-29T01:26:55.087Z,959.87
2023-01-29T01:27:05.086Z,959.87
2023-01-29T01:27:15.113Z,959.87
2023-01-29T01:27:25.086Z,959.88
2023-01-29T01:27:35.091Z,959.88
2023-01-29T01:27:45.104Z,959.89
2023-01-29T01:27:55.107Z,959.89
2023-01-29T01:28:05.089Z,959.90
2023-01-29T01:28:15.089Z,959.90
2023-01-29T01:28:25.105Z,959.91
2023-01-29T01:28:35.093Z,959.92
2023-01-29T01:28:45.095Z,959.93
2023-01-29T01:28:55.091Z,959.93
2023-01-29T01:29:05.091Z,959.94
2023-01-29T01:29:15.094Z,959.95
2023-01-29T01:29:25.095Z,959.95
2023-01-29T01:29:35.094Z,959.96
2023-01-29T01:29:45.098Z,959.96
2023-01-29T01:29:55.095Z,959.96
2023-01-29T01:30:05.104Z,959.97
2023-01-29T01:30:15.357Z,959.97
2023-01-29T01:30:25.112Z,959.97
2023-01-29T01:30:35.102Z,959.97
2023-01-29T01:30:45.155Z,959.97
2023-01-29T01:30:55.170Z,959.97
2023-01-29T01:31:05.171Z,959.97
2023-01-29T01:31:15.182Z,959.97
2023-01-29T01:31:25.293Z,959.97
2023-01-29T01:31:35.141Z,959.96
2023-01-29T01:31:45.158Z,959.96
2023-01-29T01:31:55.145Z,959.96
2023-01-29T01:32:05.179Z,959.96
2023-01-29T01:32:15.108Z,959.96
2023-01-29T01:32:25.113Z,959.96
2023-01-29T01:32:35.121Z,959.95
2023-01-29T01:32:45.116Z,959.95
2023-01-29T01:32:55.116Z,959.95
2023-01-29T01:33:05.115Z,959.95
2023-01-29T01:33:15.114Z,959.95
2023-01-29T01:33:25.131Z,959.95
2023-01-29T01:33:35.125Z,959.95
2023-01-29T01:33:45.118Z,959.94
2023-01-29T01:33:55.118Z,959.94
2023-01-29T01:34:05.116Z,959.94
2023-01-29T01:34:15.115Z,959.94
2023-01-29T01:34:25.116Z,959.94
2023-01-29T01:34:35.116Z,959.94
2023-01-29T01:34:45.118Z,959.93
2023-01-29T01:34:55.122Z,959.93
2023-01-29T01:35:05.114Z,959.93
2023-01-29T01:35:15.123Z,959.93
2023-01-29T01:35:25.138Z,959.92
2023-01-29T01:35:35.145Z,959.92
2023-01-29T01:35:45.125Z,959.92
2023-01-29T01:35:55.125Z,959.92
2023-01-29T01:36:05.121Z,959.92
2023-01-29T01:36:15.125Z,959.91
2023-01-29T01:36:25.125Z,959.91
2023-01-29T01:36:35.128Z,959.91
2023-01-29T01:36:45.126Z,959.90
2023-01-29T01:36:55.124Z,959.90
2023-01-29T01:37:05.124Z,959.90
2023-01-29T01:37:15.127Z,959.89
2023-01-29T01:37:25.130Z,959.89
2023-01-29T01:37:35.142Z,959.89
2023-01-29T01:37:45.128Z,959.89
2023-01-29T01:37:55.134Z,959.88
2023-01-29T01:38:05.130Z,959.89
2023-01-29T01:38:15.132Z,959.88
2023-01-29T01:38:25.131Z,959.88
2023-01-29T01:38:35.133Z,959.88
2023-01-29T01:38:45.146Z,959.88
2023-01-29T01:38:55.139Z,959.87
2023-01-29T01:39:05.139Z,959.87
2023-01-29T01:39:15.135Z,959.87
2023-01-29T01:39:25.137Z,959.87
2023-01-29T01:39:35.148Z,959.88
2023-01-29T01:39:45.136Z,959.87
2023-01-29T01:39:55.142Z,959.88
2023-01-29T01:40:05.155Z,959.88
2023-01-29T01:40:15.468Z,959.88
2023-01-29T01:40:25.143Z,959.88
2023-01-29T01:40:35.144Z,959.88
2023-01-29T01:40:45.151Z,959.87
2023-01-29T01:40:55.145Z,959.87
2023-01-29T01:41:05.145Z,959.87
2023-01-29T01:41:15.148Z,959.87
2023-01-29T01:41:25.148Z,959.87
2023-01-29T01:41:35.146Z,959.87
2023-01-29T01:41:45.147Z,959.87
2023-01-29T01:41:55.136Z,959.87
2023-01-29T01:42:05.152Z,959.88
2023-01-29T01:42:15.153Z,959.88
2023-01-29T01:42:25.150Z,959.87
2023-01-29T01:42:35.163Z,959.87
2023-01-29T01:42:45.151Z,959.87
2023-01-29T01:42:55.152Z,959.87
2023-01-29T01:43:05.155Z,959.87
2023-01-29T01:43:15.153Z,959.87
2023-01-29T01:43:25.161Z,959.87
2023-01-29T01:43:35.159Z,959.86
2023-01-29T01:43:45.155Z,959.86
2023-01-29T01:43:55.158Z,959.86
2023-01-29T01:44:05.157Z,959.86
2023-01-29T01:44:15.158Z,959.86
2023-01-29T01:44:25.157Z,959.86
2023-01-29T01:44:35.167Z,959.86
2023-01-29T01:44:45.165Z,959.87
2023-01-29T01:44:55.166Z,959.87
2023-01-29T01:45:05.169Z,959.87
2023-01-29T01:45:15.163Z,959.87
2023-01-29T01:45:25.167Z,959.88
2023-01-29T01:45:35.194Z,959.88
2023-01-29T01:45:45.208Z,959.88
2023-01-29T01:45:55.234Z,959.89
2023-01-29T01:46:05.220Z,959.89
2023-01-29T01:46:15.168Z,959.90
2023-01-29T01:46:25.168Z,959.90
2023-01-29T01:46:35.170Z,959.90
2023-01-29T01:46:45.171Z,959.91
2023-01-29T01:46:55.171Z,959.91
2023-01-29T01:47:05.171Z,959.92
2023-01-29T01:47:15.171Z,959.93
2023-01-29T01:47:25.173Z,959.93
2023-01-29T01:47:35.185Z,959.94
2023-01-29T01:47:45.174Z,959.94
2023-01-29T01:47:55.194Z,959.95
2023-01-29T01:48:05.173Z,959.95
2023-01-29T01:48:15.172Z,959.95
2023-01-29T01:48:25.185Z,959.95
2023-01-29T01:48:35.180Z,959.96
2023-01-29T01:48:45.175Z,959.96
2023-01-29T01:48:55.176Z,959.96
2023-01-29T01:49:05.184Z,959.95
2023-01-29T01:49:15.181Z,959.95
2023-01-29T01:49:25.183Z,959.95
2023-01-29T01:49:35.183Z,959.94
2023-01-29T01:49:45.187Z,959.94
2023-01-29T01:49:55.187Z,959.94
2023-01-29T01:50:05.187Z,959.94
2023-01-29T01:50:15.581Z,959.93
2023-01-29T01:50:25.191Z,959.93
2023-01-29T01:50:35.199Z,959.93
2023-01-29T01:50:45.191Z,959.92
2023-01-29T01:50:55.191Z,959.91
2023-01-29T01:51:05.198Z,959.91
2023-01-29T01:51:15.190Z,959.90
2023-01-29T01:51:25.200Z,959.90
2023-01-29T01:51:35.193Z,959.89
2023-01-29T01:51:45.191Z,959.88
2023-01-29T01:51:55.201Z,959.88
2023-01-29T01:52:05.194Z,959.87
2023-01-29T01:52:15.195Z,959.86
2023-01-29T01:52:25.196Z,959.85
2023-01-29T01:52:35.207Z,959.84
2023-01-29T01:52:45.199Z,959.84
2023-01-29T01:52:55.203Z,959.83
2023-01-29T01:53:05.212Z,959.82
2023-01-29T01:53:15.206Z,959.81
2023-01-29T01:53:25.202Z,959.81
2023-01-29T01:53:35.198Z,959.80
2023-01-29T01:53:45.201Z,959.79
2023-01-29T01:53:55.219Z,959.78
2023-01-29T01:54:05.210Z,959.77
2023-01-29T01:54:15.206Z,959.76
2023-01-29T01:54:25.206Z,959.76
2023-01-29T01:54:35.205Z,959.75
2023-01-29T01:54:45.211Z,959.74
2023-01-29T01:54:55.211Z,959.73
2023-01-29T01:55:05.208Z,959.73
2023-01-29T01:55:15.253Z,959.72
2023-01-29T01:55:25.212Z,959.71
2023-01-29T01:55:35.212Z,959.71
2023-01-29T01:55:45.222Z,959.70
2023-01-29T01:55:55.213Z,959.70
2023-01-29T01:56:05.215Z,959.69
2023-01-29T01:56:15.216Z,959.69
2023-01-29T01:56:25.214Z,959.68
2023-01-29T01:56:35.216Z,959.68
2023-01-29T01:56:45.219Z,959.68
2023-01-29T01:56:55.219Z,959.67
2023-01-29T01:57:05.219Z,959.67
2023-01-29T01:57:15.204Z,959.67
2023-01-29T01:57:25.309Z,959.67
2023-01-29T01:57:35.232Z,959.67
2023-01-29T01:57:45.232Z,959.66
2023-01-29T01:57:55.222Z,959.66
2023-01-29T01:58:05.222Z,959.66
2023-01-29T01:58:15.232Z,959.66
2023-01-29T01:58:25.235Z,959.65
2023-01-29T01:58:35.225Z,959.65
2023-01-29T01:58:45.228Z,959.65
2023-01-29T01:58:55.228Z,959.65
2023-01-29T01:59:05.233Z,959.65
2023-01-29T01:59:15.233Z,959.64
2023-01-29T01:59:25.229Z,959.64
2023-01-29T01:59:35.230Z,959.63
2023-01-29T01:59:45.233Z,959.62
2023-01-29T01:59:55.235Z,959.62
2023-01-29T02:00:05.239Z,959.61
2023-01-29T02:00:15.598Z,959.61
2023-01-29T02:00:25.236Z,959.60
2023-01-29T02:00:35.239Z,959.60
2023-01-29T02:00:45.272Z,959.59
2023-01-29T02:00:55.290Z,959.58
2023-01-29T02:01:05.260Z,959.58
2023-01-29T02:01:15.257Z,959.57
2023-01-29T02:01:25.935Z,959.56
2023-01-29T02:01:35.243Z,959.55
2023-01-29T02:01:45.241Z,959.55
2023-01-29T02:01:55.283Z,959.54
2023-01-29T02:02:05.261Z,959.54
2023-01-29T02:02:15.278Z,959.53
2023-01-29T02:02:25.313Z,959.53
2023-01-29T02:02:35.257Z,959.53
2023-01-29T02:02:45.248Z,959.52
2023-01-29T02:02:55.252Z,959.52
2023-01-29T02:03:05.257Z,959.52
2023-01-29T02:03:15.250Z,959.51
2023-01-29T02:03:25.259Z,959.51
2023-01-29T02:03:35.260Z,959.51
2023-01-29T02:03:45.251Z,959.51
2023-01-29T02:03:55.253Z,959.50
2023-01-29T02:04:05.252Z,959.50
2023-01-29T02:04:15.255Z,959.50
2023-01-29T02:04:25.259Z,959.50
2023-01-29T02:04:35.256Z,959.50
2023-01-29T02:04:45.268Z,959.50